Time;durP1;ratioP1;P1;durP2;ratioP2;P2;SDS_P1;SDS_P2;PMS_P1;PMS_P2;Temp;Humidity;BMP_temperature;BMP_pressure;BME280_temperature;BME280_humidity;BME280_pressure;Samples;Min_cycle;Max_cycle;Signal;HPM_P1;HPM_P2
2023/10/13 00:00:40;;;;;;;0.05;0.05;;;19.60;46.40;;;;;;5093324;28;20198;-46
2023/10/13 00:03:14;;;;;;;0.08;0.08;;;19.70;46.30;;;;;;5091105;28;20205;-50
2023/10/13 00:05:47;;;;;;;0.00;0.00;;;19.70;46.30;;;;;;5089021;28;20207;-45
2023/10/13 00:08:18;;;;;;;0.08;0.08;;;19.70;46.30;;;;;;5089874;28;20205;-48
2023/10/13 00:10:49;;;;;;;0.00;0.00;;;19.70;46.20;;;;;;5093543;28;20286;-49
2023/10/13 00:13:21;;;;;;;0.00;0.00;;;19.80;46.30;;;;;;5092495;28;20238;-50
2023/10/13 00:15:57;;;;;;;0.10;0.10;;;19.80;46.20;;;;;;5073043;28;20210;-47
2023/10/13 00:18:33;;;;;;;0.05;0.05;;;19.80;46.20;;;;;;5087663;28;20654;-48
2023/10/13 00:21:12;;;;;;;0.00;0.00;;;19.90;46.20;;;;;;5072869;28;20282;-47
2023/10/13 00:23:52;;;;;;;0.00;0.00;;;19.90;46.10;;;;;;5089491;28;20263;-46
2023/10/13 00:26:27;;;;;;;0.00;0.00;;;19.90;46.00;;;;;;5085858;28;20210;-51
2023/10/13 00:29:08;;;;;;;0.00;0.00;;;19.90;46.00;;;;;;5082904;28;20186;-52
2023/10/13 00:31:42;;;;;;;0.00;0.00;;;20.00;46.00;;;;;;5072036;28;20198;-47
2023/10/13 00:34:19;;;;;;;0.00;0.00;;;20.00;45.90;;;;;;5072126;28;20219;-50
2023/10/13 00:37:12;;;;;;;0.00;0.00;;;20.00;45.90;;;;;;5073273;28;20198;-46
2023/10/13 00:39:44;;;;;;;0.10;0.10;;;20.00;45.80;;;;;;5074907;28;20202;-47
2023/10/13 00:42:19;;;;;;;0.08;0.08;;;20.00;45.70;;;;;;5076180;28;20250;-46
2023/10/13 00:44:50;;;;;;;0.00;0.00;;;20.10;45.70;;;;;;5092596;28;20799;-45
2023/10/13 00:47:23;;;;;;;0.00;0.00;;;20.10;45.60;;;;;;5087300;28;20199;-44
2023/10/13 00:49:56;;;;;;;0.00;0.00;;;20.10;45.60;;;;;;5073230;28;20242;-45
2023/10/13 00:52:29;;;;;;;0.00;0.00;;;20.10;45.60;;;;;;5091608;28;20252;-42
2023/10/13 00:55:01;;;;;;;0.00;0.00;;;20.10;45.60;;;;;;5090350;28;20702;-45
2023/10/13 00:57:30;;;;;;;0.08;0.08;;;20.20;45.60;;;;;;5076926;28;20320;-43
2023/10/13 01:00:17;;;;;;;0.00;0.00;;;20.20;45.60;;;;;;5092061;28;20769;-46
2023/10/13 01:02:54;;;;;;;0.00;0.00;;;20.20;45.60;;;;;;5088870;28;20585;-46
2023/10/13 01:05:26;;;;;;;0.10;0.10;;;20.30;45.60;;;;;;5089571;28;20697;-44
2023/10/13 01:07:56;;;;;;;0.05;0.05;;;20.30;45.60;;;;;;5090363;28;20190;-43
2023/10/13 01:10:32;;;;;;;0.10;0.10;;;20.30;45.50;;;;;;5092373;28;20288;-46
2023/10/13 01:13:02;;;;;;;0.10;0.10;;;20.30;45.50;;;;;;5091855;28;20190;-46
2023/10/13 01:15:33;;;;;;;0.10;0.10;;;20.30;45.50;;;;;;5078294;28;20714;-44
2023/10/13 01:18:12;;;;;;;0.00;0.00;;;20.30;45.50;;;;;;5079986;28;20255;-43
2023/10/13 01:20:45;;;;;;;0.00;0.00;;;20.30;45.50;;;;;;5088347;28;20201;-46
2023/10/13 01:23:18;;;;;;;0.00;0.00;;;20.30;45.50;;;;;;5092363;28;20649;-48
2023/10/13 01:25:50;;;;;;;0.10;0.10;;;20.40;45.50;;;;;;5092142;28;20225;-43
2023/10/13 01:28:19;;;;;;;0.10;0.10;;;20.40;45.50;;;;;;5073507;28;20634;-43
2023/10/13 01:30:52;;;;;;;0.00;0.00;;;20.40;45.30;;;;;;5071814;28;20198;-53
2023/10/13 01:33:26;;;;;;;0.00;0.00;;;20.40;45.30;;;;;;5072528;28;20197;-50
2023/10/13 01:35:58;;;;;;;0.00;0.00;;;20.40;45.20;;;;;;5072944;28;20217;-45
2023/10/13 01:38:33;;;;;;;0.10;0.10;;;20.40;45.20;;;;;;5070564;28;20227;-45
2023/10/13 01:41:08;;;;;;;0.00;0.00;;;20.40;45.20;;;;;;5071834;28;20259;-47
2023/10/13 01:43:38;;;;;;;0.00;0.00;;;20.40;45.20;;;;;;5071692;28;20651;-52
2023/10/13 01:46:09;;;;;;;0.00;0.00;;;20.50;45.30;;;;;;5071471;28;20751;-47
2023/10/13 01:48:40;;;;;;;0.00;0.00;;;20.50;45.20;;;;;;5071003;28;20672;-49
2023/10/13 01:51:11;;;;;;;0.00;0.00;;;20.50;45.20;;;;;;5073994;28;20194;-54
2023/10/13 01:53:43;;;;;;;0.10;0.10;;;20.50;45.20;;;;;;5075724;28;20257;-53
2023/10/13 01:56:14;;;;;;;0.03;0.03;;;20.50;45.30;;;;;;5075517;28;20293;-51
2023/10/13 01:58:43;;;;;;;0.03;0.03;;;20.50;45.30;;;;;;5075948;28;20659;-54
2023/10/13 02:01:26;;;;;;;0.03;0.03;;;20.50;45.30;;;;;;5080064;28;20193;-53
2023/10/13 02:04:01;;;;;;;0.00;0.00;;;20.60;45.30;;;;;;5085995;28;20297;-50
2023/10/13 02:06:36;;;;;;;0.00;0.00;;;20.50;45.30;;;;;;5077980;28;20251;-51
2023/10/13 02:09:12;;;;;;;0.00;0.00;;;20.60;45.40;;;;;;5090189;28;20279;-54
2023/10/13 02:11:45;;;;;;;0.05;0.05;;;20.60;45.40;;;;;;5079185;28;20194;-52
2023/10/13 02:14:17;;;;;;;0.10;0.10;;;20.60;45.50;;;;;;5090977;28;20222;-50
2023/10/13 02:16:50;;;;;;;0.10;0.10;;;20.60;45.40;;;;;;5076308;28;20198;-52
2023/10/13 02:19:19;;;;;;;0.10;0.10;;;20.60;45.40;;;;;;5069837;28;20194;-55
2023/10/13 02:21:58;;;;;;;0.10;0.10;;;20.60;45.30;;;;;;5078431;28;20273;-46
2023/10/13 02:24:30;;;;;;;0.00;0.00;;;20.60;45.20;;;;;;5090219;28;20213;-53
2023/10/13 02:27:04;;;;;;;0.03;0.03;;;20.70;45.10;;;;;;5088482;28;20226;-52
2023/10/13 02:29:39;;;;;;;0.00;0.00;;;20.70;45.10;;;;;;5070529;28;20576;-55
2023/10/13 02:32:18;;;;;;;0.10;0.10;;;20.70;45.10;;;;;;5081306;28;20194;-54
2023/10/13 02:34:47;;;;;;;0.00;0.00;;;20.70;45.00;;;;;;5090462;28;20225;-55
2023/10/13 02:37:19;;;;;;;0.00;0.00;;;20.70;45.00;;;;;;5090740;28;20194;-53
2023/10/13 02:39:50;;;;;;;0.10;0.10;;;20.80;45.10;;;;;;5081819;28;20198;-55
2023/10/13 02:42:25;;;;;;;0.00;0.00;;;20.80;45.10;;;;;;5074483;28;20642;-56
2023/10/13 02:44:57;;;;;;;0.00;0.00;;;20.70;45.10;;;;;;5070864;28;20274;-46
2023/10/13 02:47:28;;;;;;;0.00;0.00;;;20.80;45.10;;;;;;5078209;28;20198;-50
2023/10/13 02:50:00;;;;;;;0.00;0.00;;;20.70;45.10;;;;;;5089810;28;20202;-43
2023/10/13 02:52:37;;;;;;;0.10;0.10;;;20.80;45.10;;;;;;5101450;28;20193;-54
2023/10/13 02:55:10;;;;;;;0.00;0.00;;;20.70;45.10;;;;;;5101148;28;20245;-51
2023/10/13 02:57:40;;;;;;;0.10;0.10;;;20.80;45.00;;;;;;5073425;28;20199;-52
2023/10/13 03:00:15;;;;;;;0.00;0.00;;;20.80;44.80;;;;;;5089171;28;20194;-54
2023/10/13 03:02:53;;;;;;;0.00;0.00;;;20.80;44.80;;;;;;5102962;28;20250;-44
2023/10/13 03:05:22;;;;;;;0.00;0.00;;;20.80;44.70;;;;;;5086272;28;20206;-52
2023/10/13 03:07:55;;;;;;;0.10;0.10;;;20.80;44.70;;;;;;5109191;28;20190;-53
2023/10/13 03:10:28;;;;;;;0.00;0.00;;;20.80;44.60;;;;;;5075438;28;20229;-53
2023/10/13 03:12:59;;;;;;;0.03;0.03;;;20.80;44.60;;;;;;5087691;28;20708;-45
2023/10/13 03:15:32;;;;;;;0.08;0.08;;;20.90;44.70;;;;;;5090707;28;20633;-49
2023/10/13 03:18:04;;;;;;;0.10;0.10;;;20.90;44.70;;;;;;5074185;28;20204;-44
2023/10/13 03:20:35;;;;;;;0.05;0.05;;;20.80;44.70;;;;;;5073693;28;20201;-43
2023/10/13 03:23:09;;;;;;;0.00;0.00;;;20.90;44.80;;;;;;5077653;28;20199;-44
2023/10/13 03:25:44;;;;;;;0.08;0.08;;;20.90;44.80;;;;;;5074134;28;20636;-45
2023/10/13 03:28:17;;;;;;;0.00;0.00;;;20.90;44.80;;;;;;5081785;28;20251;-54
2023/10/13 03:30:51;;;;;;;0.10;0.10;;;20.80;44.80;;;;;;5073416;28;20209;-53
2023/10/13 03:33:27;;;;;;;0.10;0.10;;;20.90;44.90;;;;;;5091784;28;20655;-50
2023/10/13 03:36:05;;;;;;;0.00;0.00;;;20.80;44.80;;;;;;5078574;28;20273;-55
2023/10/13 03:38:39;;;;;;;0.10;0.10;;;20.90;44.90;;;;;;5091561;28;20283;-46
2023/10/13 03:41:24;;;;;;;0.10;0.10;;;20.90;44.70;;;;;;5079060;28;20198;-42
2023/10/13 03:44:17;;;;;;;0.08;0.08;;;20.90;44.60;;;;;;5073014;28;20629;-52
2023/10/13 03:46:47;;;;;;;0.00;0.00;;;20.90;44.50;;;;;;5081287;28;20202;-51
2023/10/13 03:49:21;;;;;;;0.00;0.00;;;20.90;44.40;;;;;;5073240;28;20201;-49
2023/10/13 03:51:54;;;;;;;0.00;0.00;;;20.90;44.40;;;;;;5074039;28;20660;-54
2023/10/13 03:54:28;;;;;;;0.00;0.00;;;20.90;44.40;;;;;;5073413;28;20229;-49
2023/10/13 03:57:10;;;;;;;0.00;0.00;;;20.90;44.40;;;;;;5074326;28;20191;-46
2023/10/13 03:59:46;;;;;;;0.00;0.00;;;20.90;44.50;;;;;;5080933;28;20229;-48
2023/10/13 04:02:21;;;;;;;0.00;0.00;;;20.90;44.60;;;;;;5079175;28;20190;-48
2023/10/13 04:04:54;;;;;;;0.00;0.00;;;20.90;44.60;;;;;;5082486;28;20221;-43
2023/10/13 04:16:34;;;;;;;0.00;0.00;;;20.90;44.50;;;;;;5068178;28;20223;-51
2023/10/13 04:19:19;;;;;;;0.08;0.08;;;20.80;44.50;;;;;;5073398;28;20553;-55
2023/10/13 04:21:58;;;;;;;0.00;0.00;;;20.90;44.50;;;;;;5074198;28;20634;-52
2023/10/13 04:25:00;;;;;;;0.00;0.00;;;20.80;44.40;;;;;;5093001;28;20214;-55
2023/10/13 04:30:26;;;;;;;0.05;0.05;;;20.80;44.30;;;;;;5071323;28;20194;-54
2023/10/13 04:33:35;;;;;;;0.05;0.05;;;20.80;44.30;;;;;;5082581;28;20662;-53
2023/10/13 04:36:13;;;;;;;0.10;0.10;;;20.80;44.20;;;;;;5072810;28;20235;-53
2023/10/13 04:38:56;;;;;;;0.08;0.08;;;20.80;44.20;;;;;;5089936;28;20190;-56
2023/10/13 04:41:31;;;;;;;0.10;0.10;;;20.80;44.30;;;;;;5082124;28;20197;-55
2023/10/13 04:44:05;;;;;;;0.03;0.03;;;20.80;44.30;;;;;;5092661;28;20192;-51
2023/10/13 04:46:39;;;;;;;0.00;0.00;;;20.80;44.30;;;;;;5084679;28;20190;-48
2023/10/13 04:49:27;;;;;;;0.00;0.00;;;20.80;44.30;;;;;;5092715;28;20201;-51
2023/10/13 04:52:00;;;;;;;0.00;0.00;;;20.80;44.30;;;;;;5085295;28;20658;-44
2023/10/13 04:54:45;;;;;;;0.10;0.10;;;20.80;44.20;;;;;;5082756;28;20224;-52
2023/10/13 04:57:25;;;;;;;0.03;0.03;;;20.80;44.20;;;;;;5093096;28;20186;-48
2023/10/13 05:44:56;;;;;;;0.00;0.00;;;20.70;43.90;;;;;;5111590;28;20228;-54
2023/10/13 06:29:46;;;;;;;0.00;0.00;;;20.70;43.40;;;;;;5087355;28;20200;-55
2023/10/13 06:32:16;;;;;;;0.10;0.10;;;20.70;43.50;;;;;;5087440;28;20229;-55
2023/10/13 06:34:47;;;;;;;0.10;0.10;;;20.70;43.40;;;;;;5086876;28;20217;-55
2023/10/13 06:37:30;;;;;;;0.00;0.00;;;20.70;43.50;;;;;;5087936;28;20205;-56
2023/10/13 06:40:07;;;;;;;0.00;0.00;;;20.70;43.40;;;;;;5086955;28;20733;-55
2023/10/13 06:42:42;;;;;;;0.00;0.00;;;20.70;43.40;;;;;;5087137;28;20562;-45
2023/10/13 06:45:13;;;;;;;0.00;0.00;;;20.70;43.50;;;;;;5086236;28;20209;-56
2023/10/13 06:47:48;;;;;;;0.00;0.00;;;20.70;43.50;;;;;;5086562;28;20194;-56
2023/10/13 06:50:19;;;;;;;0.00;0.00;;;20.70;43.50;;;;;;5086721;28;20892;-55
2023/10/13 06:52:54;;;;;;;0.10;0.10;;;20.70;43.50;;;;;;5084000;28;20229;-52
2023/10/13 06:55:27;;;;;;;0.00;0.00;;;20.70;43.60;;;;;;5087584;28;20220;-56
2023/10/13 06:58:00;;;;;;;0.10;0.10;;;20.70;43.50;;;;;;5087214;28;20201;-50
2023/10/13 07:00:34;;;;;;;0.10;0.10;;;20.70;43.50;;;;;;5066342;28;20234;-49
2023/10/13 07:03:09;;;;;;;0.10;0.10;;;20.70;43.50;;;;;;5062484;28;20637;-56
2023/10/13 07:05:41;;;;;;;0.10;0.10;;;20.60;43.40;;;;;;5073441;28;20214;-54
2023/10/13 07:08:14;;;;;;;0.10;0.10;;;20.70;43.50;;;;;;5073386;28;20194;-52
2023/10/13 07:11:02;;;;;;;0.10;0.10;;;20.70;43.40;;;;;;5073107;28;20191;-53
2023/10/13 07:13:39;;;;;;;0.05;0.05;;;20.70;43.30;;;;;;5073291;28;20195;-52
2023/10/13 07:16:12;;;;;;;0.10;0.10;;;20.60;43.30;;;;;;5072486;28;20241;-52
2023/10/13 07:18:49;;;;;;;0.10;0.10;;;20.60;43.30;;;;;;5052304;28;20187;-53
2023/10/13 07:21:24;;;;;;;0.05;0.05;;;20.60;43.30;;;;;;5052551;28;20544;-55
2023/10/13 07:24:08;;;;;;;0.00;0.00;;;20.60;43.30;;;;;;5066916;28;20256;-53
2023/10/13 07:26:42;;;;;;;0.00;0.00;;;20.60;43.30;;;;;;5072989;28;20199;-54
2023/10/13 07:29:16;;;;;;;0.10;0.10;;;20.60;43.40;;;;;;5072815;28;20198;-55
2023/10/13 07:31:46;;;;;;;0.00;0.00;;;20.60;43.40;;;;;;5073005;28;20309;-52
2023/10/13 07:34:24;;;;;;;0.10;0.10;;;20.60;43.50;;;;;;5072611;28;20279;-55
2023/10/13 07:36:59;;;;;;;0.00;0.00;;;20.60;43.50;;;;;;5067807;28;20267;-52
2023/10/13 07:39:33;;;;;;;0.00;0.00;;;20.60;43.50;;;;;;5072395;28;20191;-47
2023/10/13 07:42:14;;;;;;;0.00;0.00;;;20.60;43.50;;;;;;5072721;28;21143;-50
2023/10/13 07:44:48;;;;;;;0.10;0.10;;;20.60;43.40;;;;;;5072105;28;20215;-54
2023/10/13 07:47:20;;;;;;;0.00;0.00;;;20.60;43.40;;;;;;5071967;28;20647;-49
2023/10/13 07:49:50;;;;;;;0.00;0.00;;;20.60;43.30;;;;;;5072370;28;20289;-52
2023/10/13 07:52:26;;;;;;;0.00;0.00;;;20.60;43.30;;;;;;5072118;28;20222;-50
2023/10/13 07:55:10;;;;;;;0.00;0.00;;;20.60;43.90;;;;;;5072263;28;20249;-50
2023/10/13 07:57:53;;;;;;;0.10;0.10;;;20.60;43.30;;;;;;5072481;28;20194;-53
2023/10/13 08:00:46;;;;;;;0.10;0.10;;;20.50;43.20;;;;;;5071737;28;20195;-52
2023/10/13 08:03:31;;;;;;;0.10;0.10;;;20.50;43.20;;;;;;5070134;28;20282;-56
2023/10/13 08:06:18;;;;;;;0.00;0.00;;;20.50;43.30;;;;;;5052826;28;20212;-52
2023/10/13 08:08:53;;;;;;;0.00;0.00;;;20.50;43.30;;;;;;5052341;28;20203;-51
2023/10/13 08:11:34;;;;;;;0.10;0.10;;;20.50;43.30;;;;;;5057755;28;20194;-55
2023/10/13 08:14:17;;;;;;;0.00;0.00;;;20.50;43.40;;;;;;5070930;28;20198;-55
2023/10/13 08:17:02;;;;;;;0.00;0.00;;;20.50;43.40;;;;;;5071828;28;20191;-53
2023/10/13 08:19:39;;;;;;;0.00;0.00;;;20.50;43.40;;;;;;5072012;28;20290;-45
2023/10/13 08:22:26;;;;;;;0.10;0.10;;;20.50;43.40;;;;;;5072084;28;20202;-53
2023/10/13 08:28:04;;;;;;;0.08;0.08;;;20.40;43.40;;;;;;5072056;28;20194;-53
2023/10/13 08:30:52;;;;;;;0.10;0.10;;;20.40;43.40;;;;;;5071707;28;20290;-52
2023/10/13 08:33:27;;;;;;;0.00;0.00;;;20.50;43.40;;;;;;5071256;28;20313;-52
2023/10/13 08:36:18;;;;;;;0.10;0.10;;;20.40;43.30;;;;;;5071261;28;20211;-50
2023/10/13 08:38:55;;;;;;;0.05;0.05;;;20.40;43.40;;;;;;5067610;28;20191;-47
2023/10/13 08:41:31;;;;;;;0.00;0.00;;;20.40;43.40;;;;;;5053902;28;20206;-46
2023/10/13 08:44:09;;;;;;;0.00;0.00;;;20.40;43.40;;;;;;5059745;28;20634;-53
2023/10/13 08:47:03;;;;;;;0.10;0.10;;;20.40;43.40;;;;;;5062225;28;20236;-42
2023/10/13 08:49:42;;;;;;;0.00;0.00;;;20.40;43.40;;;;;;5065436;28;20195;-42
2023/10/13 08:58:03;;;;;;;0.10;0.10;;;20.40;43.50;;;;;;5071056;28;20538;-55
2023/10/13 09:03:38;;;;;;;0.00;0.00;;;20.30;43.50;;;;;;5071097;28;20662;-55
2023/10/13 09:06:14;;;;;;;0.00;0.00;;;20.40;43.60;;;;;;5049202;28;20262;-53
2023/10/13 09:09:04;;;;;;;0.05;0.05;;;20.40;43.70;;;;;;5056422;28;20187;-45
2023/10/13 09:11:48;;;;;;;0.03;0.03;;;20.30;43.60;;;;;;5059962;28;20550;-54
2023/10/13 09:17:34;;;;;;;0.00;0.00;;;20.40;43.60;;;;;;5066183;28;20592;-48
2023/10/13 09:20:24;;;;;;;0.00;0.00;;;20.30;43.50;;;;;;5066822;28;20631;-55
2023/10/13 09:23:07;;;;;;;0.00;0.00;;;20.30;43.50;;;;;;5065721;28;20260;-45
2023/10/13 09:25:38;;;;;;;0.00;0.00;;;20.30;43.50;;;;;;5069910;28;20218;-54
2023/10/13 09:28:18;;;;;;;0.10;0.10;;;20.30;43.50;;;;;;5061087;28;20292;-54
2023/10/13 09:30:49;;;;;;;0.00;0.00;;;20.30;43.50;;;;;;5062680;28;20194;-44
2023/10/13 09:33:32;;;;;;;0.00;0.00;;;20.30;43.50;;;;;;5066486;28;20645;-51
2023/10/13 09:36:04;;;;;;;0.00;0.00;;;20.30;43.50;;;;;;5054978;28;20211;-53
2023/10/13 09:38:40;;;;;;;0.00;0.00;;;20.30;43.60;;;;;;5071102;28;20218;-43
2023/10/13 09:41:17;;;;;;;0.10;0.10;;;20.30;43.50;;;;;;5070179;28;20619;-42
2023/10/13 09:43:51;;;;;;;0.00;0.00;;;20.30;43.60;;;;;;5070940;28;20198;-42
2023/10/13 09:46:23;;;;;;;0.00;0.00;;;20.30;43.60;;;;;;5070189;28;20214;-42
2023/10/13 09:49:08;;;;;;;0.00;0.00;;;20.30;43.70;;;;;;5069049;28;20183;-42
2023/10/13 09:51:41;;;;;;;0.00;0.00;;;20.30;43.70;;;;;;5069907;28;20206;-48
2023/10/13 09:54:20;;;;;;;0.10;0.10;;;20.30;43.70;;;;;;5070695;28;20277;-42
2023/10/13 09:56:54;;;;;;;0.10;0.10;;;20.30;43.70;;;;;;5070090;28;20244;-52
2023/10/13 09:59:34;;;;;;;0.00;0.00;;;20.30;43.70;;;;;;5070018;28;20282;-42
2023/10/13 10:02:09;;;;;;;0.10;0.10;;;20.30;43.60;;;;;;5069833;28;20510;-41
2023/10/13 10:04:45;;;;;;;0.00;0.00;;;20.30;43.60;;;;;;5070463;28;20312;-42
2023/10/13 10:07:27;;;;;;;0.00;0.00;;;20.30;43.60;;;;;;5050410;28;20229;-46
2023/10/13 10:10:01;;;;;;;0.10;0.10;;;20.20;43.50;;;;;;5070084;28;20191;-42
2023/10/13 10:12:41;;;;;;;0.00;0.00;;;20.20;43.50;;;;;;5069049;28;20306;-48
2023/10/13 10:15:28;;;;;;;0.05;0.05;;;20.20;43.50;;;;;;5069069;28;20348;-48
2023/10/13 10:17:59;;;;;;;0.00;0.00;;;20.20;43.50;;;;;;5069591;28;20223;-52
2023/10/13 10:20:42;;;;;;;0.00;0.00;;;20.20;43.50;;;;;;5069654;28;20209;-46
2023/10/13 10:23:21;;;;;;;0.00;0.00;;;20.20;43.50;;;;;;5069721;28;20274;-44
2023/10/13 10:26:04;;;;;;;0.10;0.10;;;20.20;43.50;;;;;;5068824;28;20228;-45
2023/10/13 10:28:41;;;;;;;0.00;0.00;;;20.20;43.60;;;;;;5069811;28;20195;-52
2023/10/13 10:31:16;;;;;;;0.10;0.10;;;20.20;43.70;;;;;;5068403;28;20199;-50
2023/10/13 10:33:50;;;;;;;0.10;0.10;;;20.20;43.70;;;;;;5069350;28;20229;-50
2023/10/13 10:36:31;;;;;;;0.10;0.10;;;20.20;43.70;;;;;;5068542;28;20756;-47
2023/10/13 10:39:04;;;;;;;0.05;0.05;;;20.20;43.70;;;;;;5072068;28;20278;-48
2023/10/13 10:41:45;;;;;;;0.00;0.00;;;20.20;43.70;;;;;;5073007;28;20193;-47
2023/10/13 10:44:22;;;;;;;0.10;0.10;;;20.10;43.60;;;;;;5073653;28;20202;-44
2023/10/13 10:46:58;;;;;;;0.03;0.03;;;20.10;43.60;;;;;;5070236;28;20194;-43
2023/10/13 10:49:30;;;;;;;0.10;0.10;;;20.20;43.70;;;;;;5063581;28;20714;-42
2023/10/13 10:52:04;;;;;;;0.00;0.00;;;20.10;43.60;;;;;;5072973;28;20214;-41
2023/10/13 10:54:35;;;;;;;0.10;0.10;;;20.10;43.60;;;;;;5072572;28;20211;-42
2023/10/13 10:57:17;;;;;;;0.10;0.10;;;20.10;43.60;;;;;;5073599;28;20207;-42
2023/10/13 10:59:58;;;;;;;0.10;0.10;;;20.10;43.60;;;;;;5072593;28;20195;-50
2023/10/13 11:02:34;;;;;;;0.10;0.10;;;20.10;43.60;;;;;;5073212;28;20282;-48
2023/10/13 11:05:06;;;;;;;0.00;0.00;;;20.10;43.60;;;;;;5072622;28;20225;-43
2023/10/13 11:07:36;;;;;;;0.00;0.00;;;20.10;43.60;;;;;;5073055;28;20294;-42
2023/10/13 11:10:20;;;;;;;0.00;0.00;;;20.10;43.70;;;;;;5072776;28;20198;-42
2023/10/13 11:13:13;;;;;;;0.00;0.00;;;20.10;43.60;;;;;;5071707;28;20653;-46
2023/10/13 11:15:47;;;;;;;0.03;0.03;;;20.10;43.70;;;;;;5072752;28;20215;-47
2023/10/13 11:18:20;;;;;;;0.10;0.10;;;20.10;43.70;;;;;;5073630;28;20202;-50
2023/10/13 11:20:54;;;;;;;0.10;0.10;;;20.10;43.70;;;;;;5072902;28;20226;-50
2023/10/13 11:23:25;;;;;;;0.00;0.00;;;20.10;43.80;;;;;;5073175;28;20202;-45
2023/10/13 11:26:01;;;;;;;0.10;0.10;;;20.00;43.80;;;;;;5072407;28;20302;-54
2023/10/13 11:28:34;;;;;;;0.00;0.00;;;20.00;43.70;;;;;;5072487;28;20259;-48
2023/10/13 11:31:10;;;;;;;0.00;0.00;;;20.00;43.70;;;;;;5072647;28;20209;-50
2023/10/13 11:33:50;;;;;;;0.10;0.10;;;20.00;43.60;;;;;;5072598;28;20564;-41
2023/10/13 11:36:22;;;;;;;0.10;0.10;;;20.00;43.70;;;;;;5072869;28;20211;-42
2023/10/13 11:38:57;;;;;;;0.10;0.10;;;20.00;43.60;;;;;;5072314;28;20202;-42
2023/10/13 11:41:33;;;;;;;0.08;0.08;;;20.00;43.60;;;;;;5072446;28;20196;-43
2023/10/13 11:44:13;;;;;;;0.10;0.10;;;20.00;43.60;;;;;;5072146;28;20201;-48
2023/10/13 11:47:07;;;;;;;0.08;0.08;;;20.00;43.60;;;;;;5071027;28;20654;-50
2023/10/13 11:49:39;;;;;;;0.00;0.00;;;20.00;43.60;;;;;;5062589;28;20200;-49
2023/10/13 11:52:18;;;;;;;0.00;0.00;;;20.00;43.60;;;;;;5063891;28;20241;-50
2023/10/13 11:54:49;;;;;;;0.00;0.00;;;20.00;43.70;;;;;;5062556;28;20230;-52
2023/10/13 11:57:20;;;;;;;0.10;0.10;;;20.00;43.70;;;;;;5061062;28;20199;-45
2023/10/13 11:59:57;;;;;;;0.10;0.10;;;20.00;43.70;;;;;;5061249;28;20610;-51
2023/10/13 12:05:17;;;;;;;0.00;0.00;;;20.00;43.80;;;;;;5060331;28;20218;-49
2023/10/13 12:07:48;;;;;;;0.03;0.03;;;20.00;43.80;;;;;;5064163;28;20273;-54
2023/10/13 12:10:33;;;;;;;0.10;0.10;;;20.00;43.80;;;;;;5061107;28;20184;-45
2023/10/13 12:13:09;;;;;;;0.08;0.08;;;20.00;43.80;;;;;;5060871;28;20254;-43
2023/10/13 12:18:28;;;;;;;0.10;0.10;;;20.00;43.80;;;;;;5063471;28;20230;-53
2023/10/13 12:21:01;;;;;;;0.00;0.00;;;20.00;43.70;;;;;;5060709;28;20187;-46
2023/10/13 12:23:33;;;;;;;0.13;0.13;;;19.90;43.70;;;;;;5063509;28;20196;-50
2023/10/13 12:26:17;;;;;;;0.00;0.00;;;19.90;43.70;;;;;;5061936;28;20251;-53
2023/10/13 12:28:53;;;;;;;0.10;0.10;;;19.90;43.70;;;;;;5061441;28;20206;-51
2023/10/13 12:31:26;;;;;;;0.00;0.00;;;19.90;43.70;;;;;;5062121;28;20568;-52
2023/10/13 12:34:06;;;;;;;0.03;0.03;;;19.90;43.70;;;;;;5062054;28;20219;-48
2023/10/13 12:36:53;;;;;;;0.00;0.00;;;19.90;43.70;;;;;;5065709;28;20190;-53
2023/10/13 12:50:57;;;;;;;0.00;0.00;;;19.90;43.70;;;;;;5028579;28;20200;-52
2023/10/13 12:53:30;;;;;;;0.00;0.00;;;19.90;43.80;;;;;;5067344;28;20639;-55
2023/10/13 12:56:03;;;;;;;0.10;0.10;;;19.90;43.70;;;;;;5072034;28;20296;-55
2023/10/13 12:58:34;;;;;;;0.10;0.10;;;19.80;43.70;;;;;;5071164;28;20237;-49
2023/10/13 13:01:06;;;;;;;0.10;0.10;;;19.80;43.70;;;;;;5070593;28;20252;-54
2023/10/13 13:03:44;;;;;;;0.10;0.10;;;19.80;43.70;;;;;;5070964;28;20659;-45
2023/10/13 13:06:24;;;;;;;0.05;0.05;;;19.80;43.70;;;;;;5071648;28;20218;-47
2023/10/13 13:08:55;;;;;;;0.00;0.00;;;19.80;43.70;;;;;;5071501;28;20204;-50
2023/10/13 13:11:28;;;;;;;0.00;0.00;;;19.80;43.70;;;;;;5071259;28;20219;-43
2023/10/13 13:13:59;;;;;;;0.10;0.10;;;19.80;43.60;;;;;;5070935;28;20413;-49
2023/10/13 13:16:30;;;;;;;0.00;0.00;;;19.80;43.70;;;;;;5071709;28;20710;-42
2023/10/13 13:19:03;;;;;;;0.10;0.10;;;19.80;43.70;;;;;;5071040;28;20199;-50
2023/10/13 13:21:34;;;;;;;0.00;0.00;;;19.80;43.70;;;;;;5071034;28;20195;-54
2023/10/13 13:24:10;;;;;;;0.00;0.00;;;19.80;43.70;;;;;;5070617;28;20206;-50
2023/10/13 13:26:42;;;;;;;0.03;0.03;;;19.80;43.70;;;;;;5070687;28;20676;-45
2023/10/13 13:29:13;;;;;;;0.00;0.00;;;19.80;43.70;;;;;;5071467;28;20234;-43
2023/10/13 13:31:44;;;;;;;0.00;0.00;;;19.80;43.80;;;;;;5070938;28;20199;-45
2023/10/13 13:34:19;;;;;;;0.03;0.03;;;19.80;43.80;;;;;;5070694;28;20740;-45
2023/10/13 13:36:52;;;;;;;0.00;0.00;;;19.80;43.80;;;;;;5071329;28;20605;-49
2023/10/13 13:39:30;;;;;;;0.03;0.03;;;19.80;43.70;;;;;;5069922;28;20202;-51
2023/10/13 13:42:01;;;;;;;0.10;0.10;;;19.80;43.70;;;;;;5071096;28;20709;-53
2023/10/13 13:44:35;;;;;;;0.00;0.00;;;19.80;43.70;;;;;;5070692;28;20215;-48
2023/10/13 13:47:11;;;;;;;0.08;0.08;;;19.70;43.60;;;;;;5070681;28;20201;-53
2023/10/13 13:49:50;;;;;;;0.00;0.00;;;19.70;43.60;;;;;;5070109;28;20229;-48
2023/10/13 13:52:33;;;;;;;0.00;0.00;;;19.70;43.60;;;;;;5070060;28;20213;-48
2023/10/13 13:55:03;;;;;;;0.03;0.03;;;19.70;43.60;;;;;;5070483;28;20233;-53
2023/10/13 13:57:34;;;;;;;0.00;0.00;;;19.70;43.50;;;;;;5070441;28;20198;-55
2023/10/13 14:00:06;;;;;;;0.03;0.03;;;19.70;43.60;;;;;;5070204;28;20190;-46
2023/10/13 14:02:37;;;;;;;0.10;0.10;;;19.70;43.60;;;;;;5068591;28;20187;-51
2023/10/13 14:05:15;;;;;;;0.10;0.10;;;19.70;43.60;;;;;;5050671;28;20220;-42
2023/10/13 14:07:48;;;;;;;0.00;0.00;;;19.70;43.60;;;;;;5056002;28;20240;-44
2023/10/13 14:10:33;;;;;;;0.03;0.03;;;19.70;43.60;;;;;;5070804;28;20546;-48
2023/10/13 14:13:13;;;;;;;0.00;0.00;;;19.70;43.70;;;;;;5071235;28;20234;-51
2023/10/13 14:15:46;;;;;;;0.00;0.00;;;19.70;43.60;;;;;;5074613;28;20210;-51
2023/10/13 14:18:16;;;;;;;0.00;0.00;;;19.70;43.70;;;;;;5075037;28;20669;-50
2023/10/13 14:20:49;;;;;;;0.05;0.05;;;19.70;43.70;;;;;;5074856;28;20194;-49
2023/10/13 14:23:22;;;;;;;0.03;0.03;;;19.70;43.70;;;;;;5074677;28;20199;-51
2023/10/13 14:25:53;;;;;;;0.00;0.00;;;19.70;43.60;;;;;;5074463;28;20732;-55
2023/10/13 14:28:23;;;;;;;0.10;0.10;;;19.70;43.60;;;;;;5074166;28;20202;-52
2023/10/13 14:30:54;;;;;;;0.08;0.08;;;19.70;43.60;;;;;;5074269;28;20579;-54
2023/10/13 14:33:25;;;;;;;0.08;0.08;;;19.60;43.50;;;;;;5074432;28;20230;-54
2023/10/13 14:35:58;;;;;;;0.00;0.00;;;19.70;43.60;;;;;;5074600;28;20214;-55
2023/10/13 14:38:28;;;;;;;0.10;0.10;;;19.60;43.50;;;;;;5074821;28;20206;-49
2023/10/13 14:41:01;;;;;;;0.10;0.10;;;19.70;43.60;;;;;;5074391;28;20210;-52
2023/10/13 14:43:31;;;;;;;0.00;0.00;;;19.60;43.50;;;;;;5070711;28;20199;-53
2023/10/13 14:46:02;;;;;;;0.05;0.05;;;19.60;44.10;;;;;;5073955;28;20241;-45
2023/10/13 14:48:38;;;;;;;0.00;0.00;;;19.60;43.50;;;;;;5073559;28;20191;-53
2023/10/13 14:51:14;;;;;;;0.10;0.10;;;19.60;43.60;;;;;;5073405;28;20619;-50
2023/10/13 14:53:47;;;;;;;0.00;0.00;;;19.60;43.60;;;;;;5073276;28;20219;-55
2023/10/13 14:56:19;;;;;;;0.00;0.00;;;19.60;43.60;;;;;;5073601;28;20581;-53
2023/10/13 14:58:50;;;;;;;0.00;0.00;;;19.60;43.70;;;;;;5073379;28;20202;-53
2023/10/13 15:01:21;;;;;;;0.00;0.00;;;19.60;43.70;;;;;;5073678;28;20719;-51
2023/10/13 15:03:54;;;;;;;0.00;0.00;;;19.60;43.70;;;;;;5073138;28;20199;-51
2023/10/13 15:06:28;;;;;;;0.00;0.00;;;19.60;43.70;;;;;;5073797;28;20588;-52
2023/10/13 15:09:00;;;;;;;0.00;0.00;;;19.60;43.70;;;;;;5073407;28;20191;-45
2023/10/13 15:11:38;;;;;;;0.00;0.00;;;19.50;43.70;;;;;;5073488;28;20655;-53
2023/10/13 15:14:08;;;;;;;0.00;0.00;;;19.50;43.60;;;;;;5073176;28;20258;-45
2023/10/13 15:16:39;;;;;;;0.10;0.10;;;19.50;43.60;;;;;;5072730;28;20206;-49
2023/10/13 15:19:10;;;;;;;0.10;0.10;;;19.60;43.70;;;;;;5073817;28;20213;-47
2023/10/13 15:21:43;;;;;;;0.10;0.10;;;19.50;43.60;;;;;;5073519;28;20199;-55
2023/10/13 15:24:16;;;;;;;0.10;0.10;;;19.50;43.60;;;;;;5072794;28;20214;-47
2023/10/13 15:26:48;;;;;;;0.03;0.03;;;19.50;43.60;;;;;;5072994;28;20205;-53
2023/10/13 15:29:25;;;;;;;0.00;0.00;;;19.50;43.60;;;;;;5072878;28;20635;-50
2023/10/13 15:32:41;;;;;;;0.00;0.00;;;19.50;43.70;;;;;;5073323;28;20195;-50
2023/10/13 15:34:57;;;;;;;0.00;0.00;;;19.50;43.70;;;;;;5073062;28;20229;-50
2023/10/13 15:37:29;;;;;;;0.00;0.00;;;19.50;43.80;;;;;;5073401;28;20199;-45
2023/10/13 15:40:03;;;;;;;0.00;0.00;;;19.50;43.80;;;;;;5072395;28;20210;-50
2023/10/13 15:42:34;;;;;;;0.10;0.10;;;19.50;43.80;;;;;;5072906;28;20191;-49